createdAt,value
2022-09-04T00:02:08.352Z,11.20
2022-09-04T00:04:50.243Z,11.00
2022-09-04T00:07:27.760Z,11.00
2022-09-04T00:10:09.635Z,10.90
2022-09-04T00:12:46.069Z,10.43
2022-09-04T00:15:20.574Z,10.07
2022-09-04T00:17:55.941Z,10.13
2022-09-04T00:20:35.755Z,10.50
2022-09-04T00:23:10.085Z,11.40
2022-09-04T00:25:50.513Z,10.73
2022-09-04T00:28:35.262Z,10.50
2022-09-04T00:31:14.202Z,10.90
2022-09-04T00:33:50.700Z,10.90
2022-09-04T00:36:22.606Z,10.40
2022-09-04T00:38:55.852Z,10.27
2022-09-04T00:41:30.916Z,10.83
2022-09-04T00:44:35.629Z,9.93
2022-09-04T00:47:22.046Z,10.73
2022-09-04T00:50:23.048Z,10.10
2022-09-04T00:53:11.451Z,10.20
2022-09-04T00:55:54.126Z,10.10
2022-09-04T00:58:48.113Z,10.03
2022-09-04T01:01:23.185Z,9.57
2022-09-04T01:04:19.335Z,9.77
2022-09-04T01:06:58.973Z,9.37
2022-09-04T01:09:48.631Z,9.70
2022-09-04T01:12:30.160Z,9.03
2022-09-04T01:15:14.493Z,9.63
2022-09-04T01:17:56.315Z,9.03
2022-09-04T01:20:47.431Z,9.00
2022-09-04T01:23:31.793Z,9.17
2022-09-04T01:26:09.138Z,9.00
2022-09-04T01:28:51.693Z,9.67
2022-09-04T01:31:27.695Z,9.70
2022-09-04T01:34:16.257Z,9.67
2022-09-04T01:36:51.114Z,9.70
2022-09-04T01:39:23.178Z,9.70
2022-09-04T01:41:57.892Z,9.57
2022-09-04T01:44:27.270Z,9.50
2022-09-04T01:47:08.321Z,9.77
2022-09-04T01:49:39.140Z,9.87
2022-09-04T01:52:21.696Z,9.27
2022-09-04T01:54:57.048Z,9.17
2022-09-04T01:57:51.457Z,9.53
2022-09-04T02:00:23.196Z,9.73
2022-09-04T02:03:02.220Z,9.47
2022-09-04T02:05:35.495Z,10.17
2022-09-04T02:08:23.102Z,10.10
2022-09-04T02:10:57.675Z,10.50
2022-09-04T02:13:43.680Z,10.20
2022-09-04T02:16:16.718Z,9.80
2022-09-04T02:18:55.961Z,9.73
2022-09-04T02:21:31.806Z,9.93
2022-09-04T02:24:14.173Z,10.07
2022-09-04T02:26:51.269Z,9.50
2022-09-04T02:29:27.270Z,10.17
2022-09-04T02:32:02.686Z,9.37
2022-09-04T02:34:40.561Z,10.10
2022-09-04T02:37:18.122Z,9.60
2022-09-04T02:39:58.437Z,10.30
2022-09-04T02:42:33.924Z,9.70
2022-09-04T02:45:14.173Z,9.37
2022-09-04T02:47:50.066Z,9.50
2022-09-04T02:50:30.186Z,10.43
2022-09-04T02:53:08.364Z,9.73
2022-09-04T02:55:58.714Z,9.73
2022-09-04T02:58:39.660Z,9.90
2022-09-04T03:01:15.238Z,9.30
2022-09-04T03:03:48.139Z,9.23
2022-09-04T03:06:23.835Z,9.37
2022-09-04T03:08:57.110Z,9.10
2022-09-04T03:11:32.384Z,9.60
2022-09-04T03:14:06.817Z,9.60
2022-09-04T03:16:41.343Z,9.03
2022-09-04T03:19:18.992Z,9.40
2022-09-04T03:21:51.794Z,9.90
2022-09-04T03:24:28.729Z,9.77
2022-09-04T03:27:00.626Z,9.50
2022-09-04T03:29:35.900Z,9.63
2022-09-04T03:32:17.182Z,9.40
2022-09-04T03:34:52.578Z,9.50
2022-09-04T03:37:43.989Z,9.33
2022-09-04T03:40:25.993Z,9.30
2022-09-04T03:43:18.544Z,9.37
2022-09-04T03:45:55.710Z,9.67
2022-09-04T03:48:45.776Z,9.57
2022-09-04T03:51:25.677Z,9.97
2022-09-04T03:54:05.249Z,9.10
2022-09-04T03:56:48.263Z,10.07
2022-09-04T03:59:29.079Z,9.20
2022-09-04T04:02:06.533Z,9.10
2022-09-04T04:05:11.919Z,9.33
2022-09-04T04:07:48.071Z,9.20
2022-09-04T04:10:31.173Z,8.97
2022-09-04T04:13:15.605Z,8.77
2022-09-04T04:15:53.825Z,8.13
2022-09-04T04:18:53.114Z,8.17
2022-09-04T04:21:34.733Z,8.03
2022-09-04T04:24:39.155Z,7.77
2022-09-04T04:27:29.456Z,7.57
2022-09-04T04:30:06.111Z,7.60
2022-09-04T04:33:02.448Z,7.30
2022-09-04T04:35:39.334Z,7.13
2022-09-04T04:38:21.064Z,7.50
2022-09-04T04:41:02.237Z,7.50
2022-09-04T04:43:37.475Z,7.60
2022-09-04T04:46:12.419Z,7.70
2022-09-04T04:49:08.104Z,7.23
2022-09-04T04:51:59.345Z,7.47
2022-09-04T04:54:44.718Z,7.37
2022-09-04T04:57:26.891Z,7.30
2022-09-04T05:00:06.539Z,7.47
2022-09-04T05:02:41.627Z,6.90
2022-09-04T05:05:14.406Z,7.13
2022-09-04T05:07:52.219Z,7.30
2022-09-04T05:10:27.045Z,6.53
2022-09-04T05:13:04.318Z,6.43
2022-09-04T05:15:53.220Z,6.33
2022-09-04T05:18:32.690Z,6.40
2022-09-04T05:21:10.030Z,6.20
2022-09-04T05:23:46.707Z,6.23
2022-09-04T05:26:25.811Z,6.33
2022-09-04T05:29:02.317Z,6.23
2022-09-04T05:31:40.142Z,6.50
2022-09-04T05:34:16.383Z,6.30
2022-09-04T05:36:52.401Z,6.30
2022-09-04T05:39:29.654Z,6.03
2022-09-04T05:42:13.214Z,5.73
2022-09-04T05:44:57.659Z,5.60
2022-09-04T05:47:43.194Z,5.90
2022-09-04T05:50:41.074Z,5.90
2022-09-04T05:53:37.190Z,5.50
2022-09-04T05:56:25.743Z,5.10
2022-09-04T05:59:24.337Z,5.37
2022-09-04T06:02:07.730Z,4.93
2022-09-04T06:05:05.881Z,5.30
2022-09-04T06:07:41.813Z,5.47
2022-09-04T06:10:18.196Z,5.00
2022-09-04T06:13:21.661Z,5.10
2022-09-04T06:16:04.727Z,5.00
2022-09-04T06:18:52.101Z,5.13
2022-09-04T06:21:50.306Z,4.90
2022-09-04T06:24:33.158Z,4.90
2022-09-04T06:27:16.223Z,4.90
2022-09-04T06:29:59.294Z,5.00
2022-09-04T06:32:54.016Z,5.50
2022-09-04T06:35:40.720Z,5.20
2022-09-04T06:38:27.545Z,4.67
2022-09-04T06:41:08.512Z,4.82
2022-09-04T06:43:48.667Z,4.80
2022-09-04T06:46:23.704Z,5.00
2022-09-04T06:49:02.669Z,4.57
2022-09-04T06:51:45.625Z,4.95
2022-09-04T06:54:22.418Z,5.15
2022-09-04T06:57:06.849Z,5.10
2022-09-04T07:00:02.629Z,5.22
2022-09-04T07:02:46.946Z,5.25
2022-09-04T07:05:24.018Z,5.00
2022-09-04T07:08:04.962Z,4.88
2022-09-04T07:10:35.988Z,4.80
2022-09-04T07:13:36.724Z,5.22
2022-09-04T07:16:21.840Z,4.72
2022-09-04T07:19:08.705Z,4.80
2022-09-04T07:21:51.370Z,5.03
2022-09-04T07:24:47.493Z,5.13
2022-09-04T07:27:21.939Z,5.25
2022-09-04T07:29:55.954Z,4.72
2022-09-04T07:32:32.001Z,5.40
2022-09-04T07:35:06.312Z,5.53
2022-09-04T07:37:44.349Z,5.25
2022-09-04T07:40:17.676Z,4.97
2022-09-04T07:42:52.066Z,5.43
2022-09-04T07:45:32.362Z,5.60
2022-09-04T07:48:18.881Z,5.63
2022-09-04T07:51:04.992Z,5.53
2022-09-04T07:53:50.710Z,5.15
2022-09-04T07:56:27.489Z,5.22
2022-09-04T07:59:16.657Z,5.40
2022-09-04T08:02:03.422Z,5.43
2022-09-04T08:05:03.211Z,5.18
2022-09-04T08:08:12.397Z,4.93
2022-09-04T08:10:51.313Z,4.95
2022-09-04T08:13:44.351Z,4.60
2022-09-04T08:16:18.052Z,4.47
2022-09-04T08:19:15.682Z,4.20
2022-09-04T08:21:45.714Z,3.90
2022-09-04T08:24:45.654Z,3.78
2022-09-04T08:27:29.495Z,3.95
2022-09-04T08:30:05.036Z,4.32
2022-09-04T08:32:48.545Z,4.50
2022-09-04T08:35:23.694Z,4.00
2022-09-04T08:38:07.581Z,3.78
2022-09-04T08:40:57.770Z,4.45
2022-09-04T08:43:37.598Z,4.50
2022-09-04T08:46:44.542Z,4.28
2022-09-04T08:49:55.151Z,4.13
2022-09-04T08:52:54.773Z,4.30
2022-09-04T08:55:51.084Z,4.40
2022-09-04T08:58:47.862Z,3.70
2022-09-04T09:01:38.077Z,3.67
2022-09-04T09:04:49.433Z,3.08
2022-09-04T09:07:53.840Z,2.92
2022-09-04T09:10:52.123Z,2.70
2022-09-04T09:14:08.368Z,3.00
2022-09-04T09:16:45.748Z,3.10
2022-09-04T09:19:42.640Z,3.20
2022-09-04T09:22:16.330Z,2.95
2022-09-04T09:25:13.633Z,2.70
2022-09-04T09:28:20.982Z,2.50
2022-09-04T09:31:10.433Z,2.33
2022-09-04T09:34:11.518Z,2.90
2022-09-04T09:37:13.789Z,2.58
2022-09-04T09:40:25.929Z,3.05
2022-09-04T09:43:30.228Z,2.30
2022-09-04T09:46:17.799Z,2.30
2022-09-04T09:49:16.770Z,2.40
2022-09-04T09:52:19.920Z,2.20
2022-09-04T09:55:25.588Z,2.20
2022-09-04T09:58:29.140Z,2.17
2022-09-04T10:01:14.833Z,2.50
2022-09-04T10:04:21.511Z,2.20
2022-09-04T10:07:24.492Z,2.67
2022-09-04T10:10:28.815Z,2.13
2022-09-04T10:13:41.964Z,2.25
2022-09-04T10:16:42.787Z,2.53
2022-09-04T10:19:43.466Z,2.40
2022-09-04T10:22:59.811Z,2.42
2022-09-04T10:25:49.235Z,3.10
2022-09-04T10:28:57.168Z,3.15
2022-09-04T10:31:47.094Z,3.10
2022-09-04T10:34:40.118Z,3.50
2022-09-04T10:37:27.130Z,2.92
2022-09-04T10:40:24.473Z,2.78
2022-09-04T10:43:09.688Z,2.30
2022-09-04T10:45:39.916Z,2.45
2022-09-04T10:48:41.701Z,2.30
2022-09-04T10:51:44.153Z,2.08
2022-09-04T10:54:36.476Z,2.38
2022-09-04T10:57:18.556Z,2.05
2022-09-04T11:00:05.717Z,1.73
2022-09-04T11:03:07.920Z,1.60
2022-09-04T11:06:12.841Z,1.65
2022-09-04T11:09:06.650Z,1.70
2022-09-04T11:11:59.099Z,1.70
2022-09-04T11:14:53.086Z,1.65
2022-09-04T11:17:48.346Z,1.80
2022-09-04T11:20:50.335Z,1.70
2022-09-04T11:23:55.965Z,2.42
2022-09-04T11:27:08.293Z,1.70
2022-09-04T11:30:02.363Z,1.70
2022-09-04T11:32:52.285Z,1.40
2022-09-04T11:35:59.447Z,1.38
2022-09-04T11:38:54.832Z,1.40
2022-09-04T11:41:43.973Z,1.50
2022-09-04T11:44:35.852Z,1.80
2022-09-04T11:47:26.020Z,1.63
2022-09-04T11:50:05.843Z,1.50
2022-09-04T11:53:08.108Z,1.60
2022-09-04T11:56:12.730Z,1.70
2022-09-04T11:59:28.818Z,1.52
2022-09-04T12:02:41.629Z,1.60
2022-09-04T12:05:39.529Z,1.60
2022-09-04T12:08:28.022Z,1.63
2022-09-04T12:11:14.139Z,1.50
2022-09-04T12:14:09.461Z,1.65
2022-09-04T12:17:08.472Z,1.50
2022-09-04T12:20:26.744Z,1.35
2022-09-04T12:23:18.356Z,1.30
2022-09-04T12:26:08.500Z,1.40
2022-09-04T12:29:07.822Z,1.50
2022-09-04T12:31:52.941Z,1.50
2022-09-04T12:35:02.080Z,1.33
2022-09-04T12:38:09.943Z,1.40
2022-09-04T12:40:46.562Z,1.38
2022-09-04T12:43:31.995Z,1.63
2022-09-04T12:46:14.327Z,1.30
2022-09-04T12:48:54.609Z,1.40
2022-09-04T12:51:26.574Z,1.60
2022-09-04T12:54:19.088Z,1.50
2022-09-04T12:56:53.184Z,1.38
2022-09-04T12:59:50.014Z,1.52
2022-09-04T13:02:27.808Z,1.30
2022-09-04T13:05:03.865Z,1.42
2022-09-04T13:07:44.999Z,1.30
2022-09-04T13:10:24.135Z,1.35
2022-09-04T13:13:01.524Z,1.20
2022-09-04T13:15:36.517Z,1.30
2022-09-04T13:18:21.709Z,1.13
2022-09-04T13:21:01.193Z,1.30
2022-09-04T13:23:46.920Z,1.02
2022-09-04T13:26:29.607Z,1.58
2022-09-04T13:29:08.434Z,1.40
2022-09-04T13:32:04.403Z,1.52
2022-09-04T13:34:45.994Z,1.45
2022-09-04T13:37:23.816Z,1.50
2022-09-04T13:40:26.441Z,1.42
2022-09-04T13:43:22.449Z,1.40
2022-09-04T13:45:54.834Z,1.50
2022-09-04T13:48:37.336Z,1.40
2022-09-04T13:51:13.540Z,1.50
2022-09-04T13:53:54.690Z,1.40
2022-09-04T13:56:32.237Z,1.50
2022-09-04T13:59:08.527Z,1.40
2022-09-04T14:01:46.100Z,1.58
2022-09-04T14:04:19.388Z,1.40
2022-09-04T14:06:49.228Z,1.60
2022-09-04T14:09:18.318Z,1.50
2022-09-04T14:12:18.517Z,1.70
2022-09-04T14:15:21.311Z,1.40
2022-09-04T14:18:01.483Z,1.50
2022-09-04T14:20:36.553Z,1.50
2022-09-04T14:23:14.401Z,2.95
2022-09-04T14:25:51.236Z,1.40
2022-09-04T14:28:29.418Z,1.50
2022-09-04T14:31:10.367Z,1.50
2022-09-04T14:33:49.720Z,1.30
2022-09-04T14:36:29.763Z,1.50
2022-09-04T14:39:18.884Z,1.50
2022-09-04T14:42:12.181Z,1.60
2022-09-04T14:45:01.649Z,1.40
2022-09-04T14:47:42.214Z,1.80
2022-09-04T14:50:13.425Z,1.40
2022-09-04T14:52:45.646Z,1.33
2022-09-04T14:55:19.141Z,1.35
2022-09-04T14:57:51.293Z,1.50
2022-09-04T15:00:22.236Z,1.60
2022-09-04T15:02:58.068Z,1.30
2022-09-04T15:05:31.861Z,1.42
2022-09-04T15:08:02.452Z,1.30
2022-09-04T15:10:49.878Z,1.40
2022-09-04T15:13:59.947Z,1.33
2022-09-04T15:16:46.658Z,1.35
2022-09-04T15:19:28.525Z,1.50
2022-09-04T15:22:03.195Z,1.30
2022-09-04T15:24:37.921Z,1.40
2022-09-04T15:27:16.296Z,1.30
2022-09-04T15:30:00.241Z,1.50
2022-09-04T15:32:33.545Z,1.20
2022-09-04T15:35:12.495Z,1.30
2022-09-04T15:37:42.291Z,1.23
2022-09-04T15:40:14.028Z,3.05
2022-09-04T15:42:46.195Z,1.42
2022-09-04T15:45:23.929Z,1.70
2022-09-04T15:48:34.125Z,1.45
2022-09-04T15:51:19.928Z,1.70
2022-09-04T15:53:55.128Z,1.50
2022-09-04T15:56:34.821Z,1.60
2022-09-04T15:59:12.155Z,1.60
2022-09-04T16:01:49.685Z,1.60
2022-09-04T16:04:26.424Z,1.50
2022-09-04T16:06:59.969Z,1.35
2022-09-04T16:09:34.073Z,1.50
2022-09-04T16:12:10.622Z,1.42
2022-09-04T16:14:45.100Z,1.50
2022-09-04T16:17:20.146Z,1.60
2022-09-04T16:19:56.561Z,1.75
2022-09-04T16:22:36.343Z,1.50
2022-09-04T16:25:11.817Z,1.45
2022-09-04T16:27:48.233Z,1.65
2022-09-04T16:30:31.229Z,2.05
2022-09-04T16:33:00.310Z,1.40
2022-09-04T16:35:31.955Z,1.50
2022-09-04T16:38:09.269Z,1.48
2022-09-04T16:40:46.627Z,2.53
2022-09-04T16:43:24.093Z,1.60
2022-09-04T16:46:01.679Z,1.80
2022-09-04T16:48:43.250Z,1.75
2022-09-04T16:51:39.820Z,1.52
2022-09-04T16:54:18.083Z,1.50
2022-09-04T16:56:50.817Z,1.70
2022-09-04T16:59:26.322Z,1.80
2022-09-04T17:02:00.941Z,1.60
2022-09-04T17:04:39.761Z,1.63
2022-09-04T17:07:19.405Z,1.38
2022-09-04T17:10:02.746Z,1.92
2022-09-04T17:12:47.190Z,1.60
2022-09-04T17:15:27.929Z,1.50
2022-09-04T17:17:57.145Z,1.70
2022-09-04T17:20:51.613Z,1.63
2022-09-04T17:28:59.674Z,1.70
2022-09-04T17:29:07.543Z,2.03
2022-09-04T17:29:36.068Z,1.65
2022-09-04T17:32:51.509Z,1.80
2022-09-04T17:40:34.001Z,1.98
2022-09-04T17:40:36.993Z,1.77
2022-09-04T17:41:37.915Z,1.90
2022-09-04T17:44:05.388Z,2.20
2022-09-04T17:46:36.734Z,2.00
2022-09-04T17:49:20.077Z,2.25
2022-09-04T17:51:57.629Z,2.13
2022-09-04T17:54:30.177Z,2.30
2022-09-04T17:57:02.302Z,2.10
2022-09-04T17:59:40.512Z,2.50
2022-09-04T18:02:17.766Z,2.30
2022-09-04T18:04:53.758Z,2.10
2022-09-04T18:08:07.409Z,2.30
2022-09-04T18:10:25.204Z,2.08
2022-09-04T18:13:04.662Z,2.10
2022-09-04T18:15:39.411Z,2.33
2022-09-04T18:18:13.729Z,2.08
2022-09-04T18:20:50.937Z,2.25
2022-09-04T18:23:48.225Z,2.45
2022-09-04T18:26:33.979Z,2.40
2022-09-04T18:30:33.999Z,2.85
2022-09-04T18:37:06.204Z,3.55
2022-09-04T18:37:22.867Z,3.25
2022-09-04T18:38:15.596Z,3.00
2022-09-04T18:43:16.807Z,3.17
2022-09-04T18:50:30.768Z,2.95
2022-09-04T18:50:31.683Z,3.35
2022-09-04T18:50:39.644Z,2.90
2022-09-04T18:52:19.084Z,3.03
2022-09-04T18:54:50.782Z,2.88
2022-09-04T18:57:28.124Z,3.30
2022-09-04T19:00:08.145Z,3.20
2022-09-04T19:02:52.918Z,3.30
2022-09-04T19:05:44.336Z,3.15
2022-09-04T19:08:18.526Z,3.63
2022-09-04T19:10:55.087Z,4.10
2022-09-04T19:13:28.227Z,4.05
2022-09-04T19:16:02.750Z,4.90
2022-09-04T19:18:43.782Z,5.60
2022-09-04T19:21:21.977Z,5.28
2022-09-04T19:23:58.672Z,7.00
2022-09-04T19:26:36.483Z,5.05
2022-09-04T19:29:12.553Z,4.68
2022-09-04T19:31:44.542Z,3.90
2022-09-04T19:34:19.077Z,4.28
2022-09-04T19:36:55.625Z,3.53
2022-09-04T19:45:53.567Z,3.67
2022-09-04T19:46:12.321Z,3.50
2022-09-04T19:46:12.953Z,3.28
2022-09-04T19:48:24.364Z,3.50
2022-09-04T19:53:19.443Z,3.53
2022-09-04T19:53:57.903Z,3.60
2022-09-04T19:56:32.575Z,3.38
2022-09-04T19:59:25.994Z,3.40
2022-09-04T20:01:59.554Z,3.33
2022-09-04T20:04:37.234Z,3.25
2022-09-04T20:07:14.109Z,3.42
2022-09-04T20:09:48.963Z,3.42
2022-09-04T20:12:21.777Z,3.85
2022-09-04T20:14:56.098Z,4.05
2022-09-04T20:17:42.057Z,3.70
2022-09-04T20:20:19.084Z,3.95
2022-09-04T20:22:53.282Z,3.50
2022-09-04T20:25:42.713Z,3.38
2022-09-04T20:28:29.150Z,3.17
2022-09-04T20:31:35.415Z,3.50
2022-09-04T20:34:13.140Z,3.45
2022-09-04T20:36:49.122Z,3.60
2022-09-04T20:39:23.471Z,3.20
2022-09-04T20:42:01.467Z,3.17
2022-09-04T20:44:47.645Z,3.78
2022-09-04T20:52:42.368Z,3.55
2022-09-04T20:52:53.854Z,3.10
2022-09-04T20:53:28.354Z,3.15
2022-09-04T20:56:08.077Z,3.88
2022-09-04T21:03:09.465Z,3.35
2022-09-04T21:03:17.388Z,3.40
2022-09-04T21:05:00.780Z,3.47
2022-09-04T21:07:35.986Z,3.53
2022-09-04T21:10:11.739Z,3.50
2022-09-04T21:12:46.103Z,3.45
2022-09-04T21:15:31.719Z,3.50
2022-09-04T21:18:20.988Z,3.65
2022-09-04T21:21:07.728Z,3.70
2022-09-04T21:24:18.813Z,3.75
2022-09-04T21:27:13.172Z,3.58
2022-09-04T21:29:59.363Z,3.40
2022-09-04T21:33:03.697Z,4.13
2022-09-04T21:35:53.297Z,3.60
2022-09-04T21:38:57.020Z,3.92
2022-09-04T21:41:52.793Z,3.60
2022-09-04T21:44:56.877Z,3.83
2022-09-04T21:47:48.459Z,3.58
2022-09-04T21:50:42.552Z,3.55
2022-09-04T21:53:43.401Z,4.00
2022-09-04T22:02:12.394Z,3.60
2022-09-04T22:02:45.895Z,3.92
2022-09-04T22:02:54.331Z,3.90
2022-09-04T22:05:35.046Z,3.70
2022-09-04T22:13:27.024Z,4.03
2022-09-04T22:13:41.542Z,3.88
2022-09-04T22:14:26.553Z,3.80
2022-09-04T22:17:24.467Z,3.70
2022-09-04T22:20:14.933Z,4.17
2022-09-04T22:23:12.626Z,3.70
2022-09-04T22:25:48.804Z,4.13
2022-09-04T22:28:56.792Z,4.05
2022-09-04T22:31:55.355Z,3.90
2022-09-04T22:34:50.013Z,3.63
2022-09-04T22:37:53.420Z,4.00
2022-09-04T22:40:56.229Z,4.60
2022-09-04T22:43:27.230Z,3.97
2022-09-04T22:46:30.905Z,4.03
2022-09-04T22:49:36.340Z,4.00
2022-09-04T22:52:37.246Z,3.90
2022-09-04T22:55:39.088Z,4.25
2022-09-04T22:58:44.650Z,4.55
2022-09-04T23:01:52.712Z,4.07
2022-09-04T23:04:48.494Z,4.47
2022-09-04T23:12:13.561Z,4.40
2022-09-04T23:13:53.251Z,4.13
2022-09-04T23:14:06.439Z,4.80
2022-09-04T23:16:52.983Z,4.20
2022-09-04T23:25:56.828Z,4.30
2022-09-04T23:26:42.857Z,4.43
2022-09-04T23:26:49.221Z,4.50
2022-09-04T23:29:41.027Z,4.30
2022-09-04T23:32:36.091Z,4.53
2022-09-04T23:35:15.739Z,4.40
2022-09-04T23:38:07.081Z,4.88
2022-09-04T23:40:43.972Z,4.60
2022-09-04T23:43:43.301Z,4.70
2022-09-04T23:46:33.439Z,4.87
2022-09-04T23:49:32.366Z,5.00
2022-09-04T23:52:09.249Z,5.30
2022-09-04T23:54:56.789Z,4.77
2022-09-04T23:57:29.831Z,4.50
